createdAt,value
2022-10-12T00:00:05.240Z,99.90
2022-10-12T00:02:32.485Z,99.90
2022-10-12T00:04:59.468Z,99.90
2022-10-12T00:07:26.750Z,99.90
2022-10-12T00:09:53.708Z,99.90
2022-10-12T00:12:20.645Z,99.90
2022-10-12T00:14:48.099Z,99.90
2022-10-12T00:17:14.974Z,99.90
2022-10-12T00:19:41.955Z,99.90
2022-10-12T00:22:08.882Z,99.90
2022-10-12T00:24:39.325Z,99.90
2022-10-12T00:27:08.873Z,99.90
2022-10-12T00:29:35.919Z,99.90
2022-10-12T00:32:02.943Z,99.90
2022-10-12T00:34:29.835Z,99.90
2022-10-12T00:36:56.979Z,99.90
2022-10-12T00:39:24.149Z,99.90
2022-10-12T00:41:53.984Z,99.90
2022-10-12T00:44:45.436Z,99.90
2022-10-12T00:47:50.000Z,99.90
2022-10-12T00:50:25.792Z,99.90
2022-10-12T00:53:08.871Z,99.90
2022-10-12T00:55:40.654Z,99.90
2022-10-12T00:58:08.960Z,99.90
2022-10-12T01:00:40.931Z,99.90
2022-10-12T01:03:10.984Z,99.90
2022-10-12T01:05:42.949Z,99.90
2022-10-12T01:08:10.111Z,99.90
2022-10-12T01:10:36.997Z,99.90
2022-10-12T01:13:04.330Z,99.90
2022-10-12T01:15:45.691Z,99.90
2022-10-12T01:18:25.734Z,99.90
2022-10-12T01:21:19.796Z,99.90
2022-10-12T01:24:01.380Z,99.90
2022-10-12T01:26:56.062Z,99.90
2022-10-12T01:29:56.064Z,99.90
2022-10-12T01:32:51.190Z,99.90
2022-10-12T01:35:27.446Z,99.90
2022-10-12T01:38:36.137Z,99.90
2022-10-12T01:41:44.587Z,99.90
2022-10-12T01:44:12.221Z,99.90
2022-10-12T01:46:41.088Z,99.90
2022-10-12T01:49:09.002Z,99.90
2022-10-12T01:52:15.034Z,99.90
2022-10-12T01:55:31.258Z,99.90
2022-10-12T01:58:25.630Z,99.90
2022-10-12T02:01:33.009Z,99.90
2022-10-12T02:04:14.525Z,99.90
2022-10-12T02:06:51.196Z,99.90
2022-10-12T02:09:24.173Z,99.90
2022-10-12T02:11:53.473Z,99.90
2022-10-12T02:14:24.616Z,99.90
2022-10-12T02:16:56.163Z,99.90
2022-10-12T02:19:34.779Z,99.90
2022-10-12T02:22:05.123Z,99.90
2022-10-12T02:24:35.249Z,99.90
2022-10-12T02:27:02.916Z,99.90
2022-10-12T02:29:41.879Z,99.90
2022-10-12T02:32:29.875Z,99.90
2022-10-12T02:35:09.322Z,99.90
2022-10-12T02:37:49.048Z,99.90
2022-10-12T02:40:24.250Z,99.90
2022-10-12T02:43:12.033Z,99.90
2022-10-12T02:45:45.147Z,99.90
2022-10-12T02:48:17.709Z,99.90
2022-10-12T02:50:46.491Z,99.90
2022-10-12T02:53:13.885Z,99.90
2022-10-12T02:55:49.303Z,99.90
2022-10-12T02:58:17.047Z,99.90
2022-10-12T03:00:43.919Z,99.90
2022-10-12T03:03:11.866Z,99.90
2022-10-12T03:05:38.936Z,99.90
2022-10-12T03:08:06.018Z,99.90
2022-10-12T03:10:33.226Z,99.90
2022-10-12T03:13:00.259Z,99.90
2022-10-12T03:15:27.130Z,99.90
2022-10-12T03:17:54.043Z,99.90
2022-10-12T03:20:20.880Z,99.90
2022-10-12T03:22:47.730Z,99.90
2022-10-12T03:25:14.584Z,99.90
2022-10-12T03:27:41.445Z,99.90
2022-10-12T03:30:11.456Z,99.90
2022-10-12T03:32:38.875Z,99.90
2022-10-12T03:35:06.935Z,99.90
2022-10-12T03:37:34.107Z,99.90
2022-10-12T03:40:01.018Z,99.90
2022-10-12T03:42:27.920Z,99.90
2022-10-12T03:44:54.795Z,99.90
2022-10-12T03:47:21.663Z,99.90
2022-10-12T03:49:48.700Z,99.90
2022-10-12T03:52:15.653Z,99.90
2022-10-12T03:54:42.499Z,99.90
2022-10-12T03:57:09.372Z,99.90
2022-10-12T03:59:38.399Z,99.90
2022-10-12T04:02:05.324Z,99.90
2022-10-12T04:04:32.196Z,99.90
2022-10-12T04:06:59.177Z,99.90
2022-10-12T04:09:26.140Z,99.90
2022-10-12T04:11:52.979Z,99.90
2022-10-12T04:14:19.855Z,99.90
2022-10-12T04:16:46.680Z,99.90
2022-10-12T04:19:14.397Z,99.90
2022-10-12T04:21:41.279Z,99.90
2022-10-12T04:24:08.510Z,99.90
2022-10-12T04:26:35.439Z,99.90
2022-10-12T04:29:02.391Z,99.90
2022-10-12T04:31:29.399Z,99.90
2022-10-12T04:33:57.171Z,99.90
2022-10-12T04:36:27.547Z,99.90
2022-10-12T04:38:59.916Z,99.90
2022-10-12T04:41:27.970Z,99.90
2022-10-12T04:43:54.918Z,99.90
2022-10-12T04:46:22.134Z,99.90
2022-10-12T04:48:49.206Z,99.90
2022-10-12T04:51:16.185Z,99.90
2022-10-12T04:53:43.204Z,99.90
2022-10-12T04:56:10.331Z,99.90
2022-10-12T04:58:37.550Z,99.90
2022-10-12T05:01:04.674Z,99.90
2022-10-12T05:03:31.725Z,99.90
2022-10-12T05:05:58.594Z,99.90
2022-10-12T05:08:25.830Z,99.90
2022-10-12T05:10:52.746Z,99.90
2022-10-12T05:13:19.670Z,99.90
2022-10-12T05:15:46.577Z,99.90
2022-10-12T05:18:13.508Z,99.90
2022-10-12T05:20:40.480Z,99.90
2022-10-12T05:23:07.373Z,99.90
2022-10-12T05:25:35.417Z,99.90
2022-10-12T05:28:02.646Z,99.90
2022-10-12T05:30:29.656Z,99.90
2022-10-12T05:32:56.754Z,99.90
2022-10-12T05:35:23.741Z,99.90
2022-10-12T05:37:50.694Z,99.90
2022-10-12T05:40:17.860Z,99.90
2022-10-12T05:42:45.646Z,99.90
2022-10-12T05:45:12.637Z,99.90
2022-10-12T05:47:41.034Z,99.90
2022-10-12T05:50:08.837Z,99.90
2022-10-12T05:52:36.541Z,99.90
2022-10-12T05:55:04.041Z,99.90
2022-10-12T05:57:31.140Z,99.90
2022-10-12T05:59:58.403Z,99.90
2022-10-12T06:02:25.390Z,99.90
2022-10-12T06:04:52.261Z,99.90
2022-10-12T06:07:19.220Z,99.90
2022-10-12T06:09:47.720Z,99.90
2022-10-12T06:12:15.322Z,99.90
2022-10-12T06:14:42.367Z,99.90
2022-10-12T06:17:09.882Z,99.90
2022-10-12T06:19:37.058Z,99.90
2022-10-12T06:22:04.546Z,99.90
2022-10-12T06:24:31.381Z,99.90
2022-10-12T06:26:58.632Z,99.90
2022-10-12T06:29:25.650Z,99.90
2022-10-12T06:31:52.782Z,99.90
2022-10-12T06:34:19.949Z,99.90
2022-10-12T06:36:46.939Z,99.90
2022-10-12T06:39:13.998Z,99.90
2022-10-12T06:41:41.123Z,99.90
2022-10-12T06:44:08.751Z,99.90
2022-10-12T06:46:35.650Z,99.90
2022-10-12T06:49:02.669Z,99.90
2022-10-12T06:51:29.652Z,99.90
2022-10-12T06:53:56.824Z,99.90
2022-10-12T06:56:23.757Z,99.90
2022-10-12T06:58:57.716Z,99.90
2022-10-12T07:01:24.994Z,99.90
2022-10-12T07:03:51.946Z,73.20
2022-10-12T07:06:18.921Z,58.50
2022-10-12T07:08:46.115Z,38.30
2022-10-12T07:11:14.005Z,10.30
2022-10-12T07:13:41.144Z,11.10
2022-10-12T07:16:09.059Z,8.10
2022-10-12T07:18:36.409Z,12.70
2022-10-12T07:21:04.073Z,9.80
2022-10-12T07:23:33.183Z,5.10
2022-10-12T07:26:00.513Z,3.50
2022-10-12T07:28:27.997Z,1.00
2022-10-12T07:30:55.008Z,1.00
2022-10-12T07:33:21.928Z,1.00
2022-10-12T07:36:14.250Z,1.00
2022-10-12T07:38:45.518Z,1.00
2022-10-12T07:41:13.122Z,1.00
2022-10-12T07:43:39.994Z,1.00
2022-10-12T07:46:07.323Z,1.00
2022-10-12T07:48:34.683Z,1.00
2022-10-12T07:51:05.857Z,1.00
2022-10-12T07:53:34.723Z,1.40
2022-10-12T07:56:03.147Z,10.00
2022-10-12T07:58:30.056Z,3.90
2022-10-12T08:00:57.278Z,1.00
2022-10-12T08:03:24.288Z,1.00
2022-10-12T08:05:51.165Z,1.00
2022-10-12T08:08:18.048Z,1.10
2022-10-12T08:10:44.957Z,7.50
2022-10-12T08:13:11.918Z,7.30
2022-10-12T08:15:38.815Z,11.80
2022-10-12T08:18:05.859Z,8.40
2022-10-12T08:20:32.882Z,1.00
2022-10-12T08:22:59.934Z,1.00
2022-10-12T08:25:27.256Z,1.00
2022-10-12T08:27:54.124Z,1.00
2022-10-12T08:30:26.886Z,1.00
2022-10-12T08:32:53.985Z,1.00
2022-10-12T08:35:20.996Z,1.00
2022-10-12T08:37:47.915Z,1.00
2022-10-12T08:40:25.905Z,1.00
2022-10-12T08:43:26.914Z,1.00
2022-10-12T08:46:00.878Z,1.00
2022-10-12T08:48:35.955Z,1.00
2022-10-12T08:51:09.368Z,1.00
2022-10-12T08:54:08.601Z,1.00
2022-10-12T08:56:35.962Z,1.00
2022-10-12T08:59:03.716Z,1.00
2022-10-12T09:01:39.352Z,1.00
2022-10-12T09:04:54.304Z,1.00
2022-10-12T09:07:34.942Z,1.00
2022-10-12T09:10:54.078Z,1.00
2022-10-12T09:13:52.509Z,1.00
2022-10-12T09:16:25.437Z,1.00
2022-10-12T09:19:30.807Z,1.00
2022-10-12T09:21:58.427Z,1.00
2022-10-12T09:24:29.089Z,1.00
2022-10-12T09:27:03.657Z,1.00
2022-10-12T09:29:31.729Z,1.00
2022-10-12T09:32:56.052Z,1.00
2022-10-12T09:35:23.016Z,1.00
2022-10-12T09:37:54.602Z,1.00
2022-10-12T09:40:32.838Z,1.00
2022-10-12T09:43:01.871Z,1.00
2022-10-12T09:45:32.570Z,1.00
2022-10-12T09:48:20.138Z,1.00
2022-10-12T09:51:16.607Z,1.00
2022-10-12T09:53:57.351Z,1.00
2022-10-12T09:56:39.928Z,1.00
2022-10-12T09:59:20.853Z,1.00
2022-10-12T10:02:11.070Z,1.00
2022-10-12T10:04:39.729Z,1.00
2022-10-12T10:07:28.667Z,1.00
2022-10-12T10:10:30.465Z,1.00
2022-10-12T10:13:03.846Z,1.00
2022-10-12T10:15:41.848Z,1.00
2022-10-12T10:18:49.564Z,1.00
2022-10-12T10:21:32.973Z,1.00
2022-10-12T10:24:05.430Z,1.00
2022-10-12T10:27:03.419Z,1.00
2022-10-12T10:29:38.060Z,1.00
2022-10-12T10:32:26.594Z,1.00
2022-10-12T10:35:15.434Z,1.00
2022-10-12T10:37:45.675Z,1.00
2022-10-12T10:40:24.001Z,1.00
2022-10-12T10:42:58.891Z,1.00
2022-10-12T10:45:33.459Z,1.00
2022-10-12T10:48:11.619Z,1.00
2022-10-12T10:50:45.130Z,1.00
2022-10-12T10:53:21.053Z,1.00
2022-10-12T10:56:03.340Z,1.00
2022-10-12T10:58:57.320Z,1.00
2022-10-12T11:01:46.435Z,1.00
2022-10-12T11:04:41.539Z,1.00
2022-10-12T11:07:20.510Z,1.00
2022-10-12T11:09:54.299Z,1.00
2022-10-12T11:12:31.792Z,1.00
2022-10-12T11:15:12.941Z,1.00
2022-10-12T11:17:45.971Z,1.00
2022-10-12T11:20:41.675Z,1.00
2022-10-12T11:23:52.029Z,1.00
2022-10-12T11:26:39.235Z,1.00
2022-10-12T11:29:08.787Z,1.00
2022-10-12T11:31:42.994Z,1.00
2022-10-12T11:34:17.139Z,1.00
2022-10-12T11:37:14.280Z,1.00
2022-10-12T11:39:39.929Z,1.00
2022-10-12T11:42:27.356Z,1.00
2022-10-12T11:44:55.028Z,1.00
2022-10-12T11:47:54.317Z,1.00
2022-10-12T11:50:40.115Z,1.00
2022-10-12T11:53:30.699Z,1.00
2022-10-12T11:56:29.696Z,1.00
2022-10-12T11:59:04.301Z,1.00
2022-10-12T12:02:06.301Z,1.00
2022-10-12T12:04:42.578Z,1.00
2022-10-12T12:07:43.220Z,1.00
2022-10-12T12:10:52.333Z,1.00
2022-10-12T12:13:26.885Z,1.00
2022-10-12T12:15:53.699Z,1.00
2022-10-12T12:18:23.342Z,1.00
2022-10-12T12:21:00.782Z,1.00
2022-10-12T12:23:54.634Z,1.00
2022-10-12T12:26:26.790Z,1.00
2022-10-12T12:29:16.746Z,1.00
2022-10-12T12:31:43.803Z,1.00
2022-10-12T12:34:16.500Z,1.00
2022-10-12T12:36:49.970Z,1.00
2022-10-12T12:39:26.782Z,1.00
2022-10-12T12:42:01.585Z,1.00
2022-10-12T12:44:44.503Z,1.00
2022-10-12T12:50:33.399Z,1.00
2022-10-12T12:53:16.146Z,1.00
2022-10-12T12:56:39.702Z,1.00
2022-10-12T12:59:46.636Z,1.00
2022-10-12T13:02:28.104Z,1.00
2022-10-12T13:05:23.818Z,1.00
2022-10-12T13:08:24.035Z,1.00
2022-10-12T13:11:16.614Z,1.00
2022-10-12T13:13:49.653Z,1.00
2022-10-12T13:17:09.627Z,1.00
2022-10-12T13:19:15.762Z,1.00
2022-10-12T13:21:49.692Z,1.00
2022-10-12T13:24:34.545Z,1.00
2022-10-12T13:27:21.117Z,1.00
2022-10-12T13:30:12.324Z,1.00
2022-10-12T13:33:32.084Z,1.00
2022-10-12T13:36:33.019Z,1.00
2022-10-12T13:39:09.314Z,1.00
2022-10-12T13:41:36.971Z,1.00
2022-10-12T13:44:06.262Z,1.00
2022-10-12T13:46:51.670Z,1.00
2022-10-12T13:49:24.161Z,1.00
2022-10-12T13:52:32.561Z,1.00
2022-10-12T13:55:00.931Z,1.00
2022-10-12T13:57:50.355Z,1.00
2022-10-12T14:00:21.963Z,1.00
2022-10-12T14:02:56.792Z,1.00
2022-10-12T14:05:25.644Z,1.00
2022-10-12T14:07:56.297Z,1.00
2022-10-12T14:10:38.476Z,1.00
2022-10-12T14:13:07.150Z,1.00
2022-10-12T14:15:39.869Z,1.00
2022-10-12T14:18:35.977Z,1.00
2022-10-12T14:21:36.591Z,1.00
2022-10-12T14:24:11.733Z,1.00
2022-10-12T14:26:43.618Z,1.00
2022-10-12T14:29:33.775Z,1.00
2022-10-12T14:32:06.890Z,1.00
2022-10-12T14:34:49.288Z,1.00
2022-10-12T14:37:24.398Z,1.00
2022-10-12T14:39:52.439Z,1.00
2022-10-12T14:42:38.702Z,1.00
2022-10-12T14:45:21.288Z,1.00
2022-10-12T14:47:49.108Z,1.00
2022-10-12T14:50:20.563Z,1.00
2022-10-12T14:52:55.175Z,1.00
2022-10-12T14:55:29.012Z,1.00
2022-10-12T14:57:56.295Z,1.00
2022-10-12T15:00:25.950Z,1.00
2022-10-12T15:02:53.535Z,1.00
2022-10-12T15:05:23.211Z,1.00
2022-10-12T15:07:50.827Z,1.00
2022-10-12T15:10:20.903Z,1.00
2022-10-12T15:12:48.474Z,1.00
2022-10-12T15:15:39.752Z,1.00
2022-10-12T15:18:06.791Z,1.00
2022-10-12T15:20:34.391Z,1.00
2022-10-12T15:23:01.456Z,1.00
2022-10-12T15:26:06.865Z,1.00
2022-10-12T15:28:33.958Z,1.00
2022-10-12T15:31:17.104Z,1.00
2022-10-12T15:33:45.224Z,1.00
2022-10-12T15:36:12.213Z,1.00
2022-10-12T15:38:39.565Z,1.00
2022-10-12T15:41:10.340Z,1.00
2022-10-12T15:43:39.707Z,1.00
2022-10-12T15:46:11.428Z,1.00
2022-10-12T15:48:40.454Z,1.00
2022-10-12T15:51:27.739Z,1.00
2022-10-12T15:53:55.431Z,1.00
2022-10-12T15:56:23.038Z,1.00
2022-10-12T15:58:50.543Z,1.00
2022-10-12T16:01:20.227Z,1.00
2022-10-12T16:03:48.619Z,1.00
2022-10-12T16:06:15.708Z,1.00
2022-10-12T16:08:42.728Z,1.00
2022-10-12T16:11:13.786Z,1.00
2022-10-12T16:13:47.979Z,1.00
2022-10-12T16:16:18.648Z,1.20
2022-10-12T16:18:45.883Z,3.60
2022-10-12T16:21:13.114Z,3.40
2022-10-12T16:23:43.835Z,4.50
2022-10-12T16:26:14.635Z,6.10
2022-10-12T16:28:42.466Z,8.40
2022-10-12T16:31:15.959Z,9.50
2022-10-12T16:33:43.530Z,9.90
2022-10-12T16:36:13.426Z,10.90
2022-10-12T16:38:40.601Z,12.00
2022-10-12T16:41:14.771Z,12.50
2022-10-12T16:43:41.828Z,14.70
2022-10-12T16:46:09.126Z,15.30
2022-10-12T16:48:36.742Z,17.10
2022-10-12T16:51:11.275Z,20.00
2022-10-12T16:53:38.513Z,19.90
2022-10-12T16:56:05.750Z,22.70
2022-10-12T16:58:33.189Z,24.50
2022-10-12T17:01:09.555Z,24.80
2022-10-12T17:03:36.557Z,24.30
2022-10-12T17:06:03.426Z,25.40
2022-10-12T17:08:34.899Z,26.80
2022-10-12T17:11:14.173Z,28.10
2022-10-12T17:13:45.205Z,28.40
2022-10-12T17:16:33.539Z,28.50
2022-10-12T17:19:22.832Z,33.00
2022-10-12T17:21:50.155Z,34.20
2022-10-12T17:24:19.074Z,35.00
2022-10-12T17:26:46.558Z,39.60
2022-10-12T17:29:18.590Z,39.50
2022-10-12T17:31:46.672Z,42.00
2022-10-12T17:34:28.194Z,42.70
2022-10-12T17:36:57.730Z,42.00
2022-10-12T17:39:27.266Z,41.60
2022-10-12T17:41:54.562Z,43.00
2022-10-12T17:44:22.096Z,45.70
2022-10-12T17:46:49.783Z,48.60
2022-10-12T17:49:23.635Z,46.00
2022-10-12T17:51:51.528Z,47.90
2022-10-12T17:54:20.026Z,48.60
2022-10-12T17:56:47.072Z,48.30
2022-10-12T17:59:16.779Z,47.80
2022-10-12T18:01:43.839Z,47.80
2022-10-12T18:04:12.134Z,50.70
2022-10-12T18:06:39.934Z,53.00
2022-10-12T18:09:09.568Z,53.30
2022-10-12T18:11:39.341Z,53.70
2022-10-12T18:14:09.011Z,55.60
2022-10-12T18:16:36.232Z,57.20
2022-10-12T18:19:07.888Z,58.30
2022-10-12T18:21:35.255Z,60.70
2022-10-12T18:24:07.119Z,64.50
2022-10-12T18:26:35.409Z,65.40
2022-10-12T18:29:02.812Z,68.10
2022-10-12T18:31:30.095Z,70.00
2022-10-12T18:33:58.052Z,71.00
2022-10-12T18:36:25.821Z,72.30
2022-10-12T18:38:53.295Z,77.00
2022-10-12T18:41:22.619Z,77.50
2022-10-12T18:43:55.319Z,78.70
2022-10-12T18:46:22.401Z,81.90
2022-10-12T18:48:49.643Z,85.20
2022-10-12T18:51:19.803Z,88.00
2022-10-12T18:53:47.527Z,90.50
2022-10-12T18:56:17.217Z,91.30
2022-10-12T18:58:44.213Z,92.70
2022-10-12T19:01:22.797Z,94.50
2022-10-12T19:03:50.275Z,94.80
2022-10-12T19:06:23.778Z,95.50
2022-10-12T19:08:51.826Z,96.10
2022-10-12T19:11:22.041Z,97.00
2022-10-12T19:14:13.741Z,96.80
2022-10-12T19:16:41.470Z,96.40
2022-10-12T19:19:16.902Z,95.90
2022-10-12T19:21:47.197Z,95.90
2022-10-12T19:24:15.880Z,96.90
2022-10-12T19:26:43.898Z,97.10
2022-10-12T19:29:11.744Z,99.00
2022-10-12T19:31:42.384Z,99.90
2022-10-12T19:34:12.029Z,99.90
2022-10-12T19:36:39.967Z,99.90
2022-10-12T19:39:10.132Z,99.90
2022-10-12T19:41:37.159Z,99.90
2022-10-12T19:44:05.091Z,99.90
2022-10-12T19:46:32.522Z,99.90
2022-10-12T19:49:00.716Z,99.90
2022-10-12T19:51:29.690Z,99.90
2022-10-12T19:53:59.075Z,99.90
2022-10-12T19:56:27.580Z,99.90
2022-10-12T19:58:57.701Z,99.90
2022-10-12T20:01:30.512Z,99.90
2022-10-12T20:03:57.963Z,99.90
2022-10-12T20:06:27.092Z,99.90
2022-10-12T20:08:56.073Z,99.90
2022-10-12T20:11:24.893Z,99.90
2022-10-12T20:13:52.843Z,99.90
2022-10-12T20:16:20.694Z,99.90
2022-10-12T20:18:48.727Z,99.90
2022-10-12T20:21:19.176Z,99.90
2022-10-12T20:23:46.692Z,99.90
2022-10-12T20:26:25.306Z,99.90
2022-10-12T20:28:56.256Z,99.90
2022-10-12T20:31:24.711Z,99.90
2022-10-12T20:33:52.965Z,99.90
2022-10-12T20:36:23.186Z,99.90
2022-10-12T20:38:50.452Z,99.90
2022-10-12T20:41:17.959Z,99.90
2022-10-12T20:43:45.358Z,99.90
2022-10-12T20:46:14.327Z,99.90
2022-10-12T20:48:42.449Z,99.90
2022-10-12T20:51:13.294Z,99.90
2022-10-12T20:53:40.443Z,99.90
2022-10-12T20:56:08.936Z,99.90
2022-10-12T20:58:35.888Z,99.90
2022-10-12T21:01:08.613Z,99.90
2022-10-12T21:03:35.876Z,99.90
2022-10-12T21:06:15.866Z,99.90
2022-10-12T21:08:43.269Z,99.90
2022-10-12T21:11:10.852Z,99.90
2022-10-12T21:13:41.174Z,99.90
2022-10-12T21:16:13.056Z,99.90
2022-10-12T21:18:40.947Z,99.90
2022-10-12T21:21:16.294Z,99.90
2022-10-12T21:23:46.718Z,99.90
2022-10-12T21:26:19.160Z,99.90
2022-10-12T21:28:47.390Z,99.90
2022-10-12T21:31:15.669Z,99.90
2022-10-12T21:33:43.579Z,99.90
2022-10-12T21:36:20.702Z,99.90
2022-10-12T21:38:48.834Z,99.90
2022-10-12T21:41:19.120Z,99.90
2022-10-12T21:43:46.635Z,99.90
2022-10-12T21:46:16.659Z,99.90
2022-10-12T21:48:47.396Z,99.90
2022-10-12T21:51:14.673Z,99.90
2022-10-12T21:53:42.410Z,99.90
2022-10-12T21:56:29.709Z,99.90
2022-10-12T21:58:58.841Z,99.90
2022-10-12T22:01:36.825Z,99.90
2022-10-12T22:04:07.048Z,99.90
2022-10-12T22:06:34.795Z,99.90
2022-10-12T22:09:06.547Z,99.90
2022-10-12T22:11:35.655Z,99.90
2022-10-12T22:14:05.352Z,99.90
2022-10-12T22:16:32.949Z,99.90
2022-10-12T22:19:02.112Z,99.90
2022-10-12T22:21:31.706Z,99.90
2022-10-12T22:24:00.832Z,99.90
2022-10-12T22:26:28.369Z,99.90
2022-10-12T22:28:55.600Z,99.90
2022-10-12T22:31:24.757Z,99.90
2022-10-12T22:33:52.928Z,99.90
2022-10-12T22:36:20.281Z,99.90
2022-10-12T22:38:47.879Z,99.90
2022-10-12T22:41:22.778Z,99.90
2022-10-12T22:43:51.786Z,99.90
2022-10-12T22:46:19.912Z,99.90
2022-10-12T22:48:47.614Z,99.90
2022-10-12T22:51:19.445Z,99.90
2022-10-12T22:53:46.811Z,99.90
2022-10-12T22:56:16.832Z,99.90
2022-10-12T22:58:44.679Z,99.90
2022-10-12T23:01:16.626Z,99.90
2022-10-12T23:03:44.416Z,99.90
2022-10-12T23:06:13.757Z,99.90
2022-10-12T23:08:41.797Z,99.90
2022-10-12T23:11:11.870Z,99.90
2022-10-12T23:13:39.550Z,99.90
2022-10-12T23:16:09.398Z,99.90
2022-10-12T23:18:36.825Z,99.90
2022-10-12T23:21:13.046Z,99.90
2022-10-12T23:23:41.468Z,99.90
2022-10-12T23:26:11.956Z,99.90
2022-10-12T23:28:39.330Z,99.90
2022-10-12T23:31:08.662Z,99.90
2022-10-12T23:33:35.957Z,99.90
2022-10-12T23:36:06.861Z,99.90
2022-10-12T23:38:36.099Z,99.90
2022-10-12T23:41:18.044Z,99.90
2022-10-12T23:43:45.090Z,99.90
2022-10-12T23:46:12.647Z,99.90
2022-10-12T23:48:40.033Z,99.90
2022-10-12T23:51:11.602Z,99.90
2022-10-12T23:53:39.158Z,99.90
2022-10-12T23:56:07.684Z,99.90
2022-10-12T23:58:35.218Z,99.90
